Aviation Digital Data Service (ADDS)

Output produced by METARs form (1646 UTC 20 January 2019)
found at http://www.aviationweather.gov/metar/data/
 
VLLB 201100Z 36002KT 9999 FEW020 FEW060 27/20 Q1012 NOSIG
TAF VLLB 201100Z 2012/2112 34004KT 8000 SCT020 SCT060 
     TEMPO 2014/2020 2000 BR SCT010 OVC070
       
VLPS 201300Z 24002KT 9999 FEW024 30/17 Q1012 NOSIG
TAF VLPS 201100Z 2012/2112 18004KT 9999 FEW020 SCT050
       
TAF VLSK 201100Z 2012/2112 09004KT 8000 SCT020 SCT100 
     TEMPO 2014/2020 3000 BR SCT040 SCT100
       
VLVT 201600Z 32004KT 3000 BR FEW050 21/19 Q1013 NOSIG
TAF VLVT 201100Z 2012/2112 36004KT 8000 FEW020 FEW200 
     TEMPO 2014/2020 3000 BR FEW050 FEW200